Terminal Aerodrome Forecast
Issued by NWS Twin Cities, MN

Home | Current Version | Previous Version | Text Only | Print | Product List | Glossary Off
Versions: 1 2 3 4 5 6 7 8 9 10 11 12 13 14 15 16 17 18 19 20 21 22 23 24 25 26 27 28 29 30 31 32 33

495
FTUS43 KMPX 161503 AAB
TAFMSP
TAF AMD
KMSP 161503Z 1615/1718 13010KT P6SM SCT008 OVC015
     FM162300 12008KT 3SM -TSRA BR BKN025CB OVC040
      TEMPO 1700/1703 1SM TSRA BKN020CB
     FM170400 13006KT 4SM -SHRA BR VCTS OVC008CB
     FM170600 16004KT 4SM BR VCSH OVC006
     FM171000 26007KT 3SM BR OVC005
     FM171400 29011G19KT P6SM OVC008=

USA.gov is the U.S. government's official web portal to all federal, state and local government web resources and services.